Time;durP1;ratioP1;P1;durP2;ratioP2;P2;SDS_P1;SDS_P2;PMS_P1;PMS_P2;Temp;Humidity;BMP_temperature;BMP_pressure;BME280_temperature;BME280_humidity;BME280_pressure;Samples;Min_cycle;Max_cycle;Signal;HPM_P1;HPM_P2
2022/07/27 00:00:11;;;;;;;8.73;3.40;;;;;;;17.15;84.70;100657.55;1874151;76;21057;-60
2022/07/27 00:02:42;;;;;;;10.88;3.20;;;;;;;17.12;85.00;100658.63;1874156;76;21060;-59
2022/07/27 00:05:11;;;;;;;7.42;2.83;;;;;;;17.11;85.02;100658.72;1879708;76;21035;-60
2022/07/27 00:07:40;;;;;;;7.00;2.65;;;;;;;17.09;85.05;100669.95;1886134;76;21545;-59
2022/07/27 00:10:09;;;;;;;7.40;3.35;;;;;;;17.08;84.97;100672.22;1886054;76;21004;-60
2022/07/27 00:12:38;;;;;;;7.72;3.12;;;;;;;17.08;84.94;100674.87;1886184;76;21097;-60
2022/07/27 00:15:08;;;;;;;5.28;2.75;;;;;;;17.09;84.84;100684.58;1886114;75;21097;-60
2022/07/27 00:17:37;;;;;;;6.58;2.40;;;;;;;17.08;84.70;100678.41;1886321;76;21031;-60
2022/07/27 00:20:06;;;;;;;4.08;2.92;;;;;;;17.08;84.73;100680.20;1886128;76;21008;-60
2022/07/27 00:22:35;;;;;;;7.12;2.85;;;;;;;17.09;84.75;100676.59;1886216;76;21031;-60
2022/07/27 00:25:04;;;;;;;4.10;2.05;;;;;;;17.07;84.70;100686.48;1886066;76;21090;-60
2022/07/27 00:27:32;;;;;;;4.50;2.40;;;;;;;17.04;84.62;100688.89;1886238;76;21101;-60
2022/07/27 00:30:01;;;;;;;7.35;2.80;;;;;;;17.02;84.51;100689.93;1886102;76;21027;-61
2022/07/27 00:32:30;;;;;;;6.05;2.17;;;;;;;16.98;84.55;100682.14;1886183;76;21458;-61
2022/07/27 00:34:58;;;;;;;8.08;2.92;;;;;;;16.96;84.60;100686.72;1886241;76;21081;-60
2022/07/27 00:37:27;;;;;;;4.28;2.33;;;;;;;16.95;84.47;100685.03;1886222;76;21016;-60
2022/07/27 00:39:55;;;;;;;4.67;2.27;;;;;;;16.92;84.32;100686.55;1886204;76;21478;-60
2022/07/27 00:42:27;;;;;;;5.80;2.25;;;;;;;16.88;84.32;100670.92;1886208;76;20992;-60
2022/07/27 00:44:56;;;;;;;10.63;2.65;;;;;;;16.86;84.28;100682.14;1886157;76;21039;-60
2022/07/27 00:47:26;;;;;;;5.42;3.10;;;;;;;16.83;84.20;100680.52;1886362;76;21032;-60
2022/07/27 00:49:54;;;;;;;5.90;2.50;;;;;;;16.79;84.09;100682.49;1886286;76;21003;-60
2022/07/27 00:52:23;;;;;;;4.80;2.58;;;;;;;16.73;83.97;100678.92;1886187;76;21012;-61
2022/07/27 00:54:52;;;;;;;5.17;2.77;;;;;;;16.68;83.89;100676.19;1886218;76;21406;-60
2022/07/27 00:57:21;;;;;;;6.25;2.60;;;;;;;16.61;83.96;100677.05;1886104;76;21035;-60
2022/07/27 00:59:50;;;;;;;3.75;2.47;;;;;;;16.55;84.07;100675.66;1886210;76;21466;-60
2022/07/27 01:02:18;;;;;;;6.35;3.20;;;;;;;16.52;84.16;100684.30;1886331;76;21083;-61
2022/07/27 01:04:47;;;;;;;6.62;2.62;;;;;;;16.44;84.25;100675.98;1886238;76;21016;-61
2022/07/27 01:07:16;;;;;;;5.12;3.27;;;;;;;16.38;84.39;100687.86;1886221;76;21060;-60
2022/07/27 01:09:58;;;;;;;6.47;3.37;;;;;;;16.34;84.67;100678.36;1886025;76;21039;-60
2022/07/27 01:12:30;;;;;;;6.87;3.45;;;;;;;16.36;85.38;100675.16;1886141;76;21541;-60
2022/07/27 01:14:59;;;;;;;7.87;3.83;;;;;;;16.40;85.31;100676.66;1886211;76;21485;-60
2022/07/27 01:17:29;;;;;;;9.63;4.00;;;;;;;16.40;85.24;100675.33;1886184;76;21105;-61
2022/07/27 01:19:59;;;;;;;8.33;4.12;;;;;;;16.41;85.36;100679.67;1886204;76;21070;-60
2022/07/27 01:22:27;;;;;;;11.93;4.80;;;;;;;16.41;85.48;100683.66;1886256;76;21462;-60
2022/07/27 01:24:56;;;;;;;9.50;5.05;;;;;;;16.40;85.56;100675.33;1886214;76;21023;-60
2022/07/27 01:27:25;;;;;;;10.55;5.10;;;;;;;16.36;86.14;100676.48;1886313;76;21043;-60
2022/07/27 01:29:53;;;;;;;10.43;5.67;;;;;;;16.33;86.39;100676.19;1886266;76;20984;-60
2022/07/27 01:32:22;;;;;;;9.50;4.42;;;;;;;16.31;86.45;100679.91;1886221;75;21008;-60
2022/07/27 01:34:50;;;;;;;9.83;4.85;;;;;;;16.26;87.00;100668.71;1886056;76;21456;-60
2022/07/27 01:37:19;;;;;;;10.48;4.87;;;;;;;16.21;87.44;100663.22;1886158;75;20996;-60
2022/07/27 01:39:47;;;;;;;13.95;5.17;;;;;;;16.18;87.38;100672.70;1886174;76;21028;-60
2022/07/27 01:42:16;;;;;;;15.38;5.10;;;;;;;16.18;87.37;100676.69;1886303;76;21031;-60
2022/07/27 01:44:45;;;;;;;10.03;4.75;;;;;;;16.17;87.17;100674.13;1886176;75;21525;-60
2022/07/27 01:47:13;;;;;;;9.75;4.78;;;;;;;16.14;87.12;100669.88;1886080;76;21027;-61
2022/07/27 01:49:42;;;;;;;8.93;4.33;;;;;;;16.13;87.06;100668.64;1886138;76;21474;-60
2022/07/27 01:52:10;;;;;;;12.00;4.67;;;;;;;16.11;87.01;100670.06;1886210;76;21090;-60
2022/07/27 01:54:39;;;;;;;9.40;5.03;;;;;;;16.08;86.97;100673.38;1886169;76;21122;-60
2022/07/27 01:57:08;;;;;;;11.18;5.53;;;;;;;16.06;87.02;100673.95;1886309;75;21097;-60
2022/07/27 01:59:36;;;;;;;14.28;4.42;;;;;;;16.02;87.05;100675.95;1886169;76;20992;-61
2022/07/27 02:02:05;;;;;;;8.73;4.40;;;;;;;15.99;87.18;100674.80;1886150;76;21446;-59
2022/07/27 02:04:35;;;;;;;8.03;4.03;;;;;;;15.96;87.17;100677.19;1886281;76;21097;-59
2022/07/27 02:07:03;;;;;;;8.48;4.15;;;;;;;15.96;87.08;100677.67;1886105;76;21064;-60
2022/07/27 02:09:32;;;;;;;12.13;4.58;;;;;;;15.92;86.98;100678.82;1886165;76;21522;-60
2022/07/27 02:14:48;;;;;;;12.60;5.47;;;;;;;15.86;86.96;100681.84;1886336;76;21020;-60
2022/07/27 02:17:16;;;;;;;10.43;4.58;;;;;;;15.83;87.29;100678.91;1886160;76;21529;-60
2022/07/27 02:19:45;;;;;;;13.15;5.30;;;;;;;15.86;87.94;100676.53;1886306;76;21000;-59
2022/07/27 02:22:14;;;;;;;12.43;5.08;;;;;;;15.93;88.23;100680.52;1886173;76;21085;-59
2022/07/27 02:24:42;;;;;;;13.22;5.80;;;;;;;15.99;88.22;100686.76;1886093;76;21513;-60
2022/07/27 02:27:11;;;;;;;10.13;4.70;;;;;;;16.03;88.29;100701.57;1886176;76;21035;-59
2022/07/27 02:29:40;;;;;;;10.63;5.50;;;;;;;16.04;88.64;100699.28;1886215;76;21027;-60
2022/07/27 02:32:08;;;;;;;12.28;4.70;;;;;;;16.10;88.64;100702.90;1886282;76;21032;-60
2022/07/27 02:34:37;;;;;;;11.00;6.50;;;;;;;16.11;88.39;100700.61;1886178;76;21016;-60
2022/07/27 02:37:05;;;;;;;11.33;3.92;;;;;;;16.10;88.20;100702.90;1886147;76;21520;-60
2022/07/27 02:39:34;;;;;;;18.25;4.85;;;;;;;16.13;88.17;100698.70;1886048;76;21091;-60
2022/07/27 02:42:03;;;;;;;8.93;4.03;;;;;;;16.23;88.39;100694.13;1886237;76;21043;-60
2022/07/27 02:44:32;;;;;;;15.98;4.70;;;;;;;16.38;88.59;100707.31;1886273;76;21082;-60
2022/07/27 02:47:01;;;;;;;10.38;3.45;;;;;;;16.54;88.83;100708.52;1886203;76;21000;-60
2022/07/27 02:49:30;;;;;;;10.18;3.50;;;;;;;16.69;89.03;100717.75;1886105;75;21518;-60
2022/07/27 02:51:58;;;;;;;10.48;3.98;;;;;;;16.77;88.96;100716.80;1886099;75;21478;-60
2022/07/27 02:54:28;;;;;;;8.68;4.62;;;;;;;16.84;88.61;100716.81;1886142;76;21016;-60
2022/07/27 02:56:57;;;;;;;7.78;4.00;;;;;;;16.94;88.33;100715.72;1886149;76;21454;-60
2022/07/27 02:59:26;;;;;;;10.00;3.85;;;;;;;17.07;88.36;100713.09;1886145;76;21012;-60
2022/07/27 03:01:55;;;;;;;7.00;3.30;;;;;;;17.28;88.26;100719.64;1886146;76;21453;-61
2022/07/27 03:04:23;;;;;;;7.53;4.12;;;;;;;17.58;87.71;100714.97;1886042;76;20999;-60
2022/07/27 03:06:52;;;;;;;7.37;3.45;;;;;;;17.89;86.96;100713.72;1884227;75;21040;-59
2022/07/27 03:09:20;;;;;;;7.45;3.42;;;;;;;18.02;86.22;100713.25;1874175;76;21075;-59
2022/07/27 03:11:49;;;;;;;7.85;2.98;;;;;;;18.26;85.75;100713.77;1874226;75;21004;-59
2022/07/27 03:14:18;;;;;;;8.15;3.22;;;;;;;18.35;85.15;100715.78;1874175;76;21435;-59
2022/07/27 03:16:47;;;;;;;7.58;2.75;;;;;;;18.56;84.49;100718.72;1874127;76;21016;-60
2022/07/27 03:19:15;;;;;;;10.20;3.17;;;;;;;18.73;83.65;100712.63;1874170;76;21607;-60
2022/07/27 03:21:44;;;;;;;10.08;3.30;;;;;;;18.75;83.77;100718.21;1874199;76;21518;-60
2022/07/27 03:24:12;;;;;;;7.65;3.10;;;;;;;18.75;84.09;100713.37;1874284;76;21067;-59
2022/07/27 03:26:41;;;;;;;6.42;2.87;;;;;;;18.77;84.24;100716.28;1874213;76;21009;-60
2022/07/27 03:29:10;;;;;;;6.67;2.75;;;;;;;18.84;84.61;100714.89;1874179;76;21475;-60
2022/07/27 03:31:38;;;;;;;5.35;2.65;;;;;;;18.88;84.20;100720.36;1874040;76;21109;-59
2022/07/27 03:34:07;;;;;;;4.72;2.90;;;;;;;18.88;83.46;100724.37;1874188;76;21125;-59
2022/07/27 03:36:35;;;;;;;6.45;2.60;;;;;;;18.89;82.90;100722.08;1874270;76;21091;-59
2022/07/27 03:39:04;;;;;;;8.35;3.83;;;;;;;18.96;82.66;100729.16;1874159;76;21090;-59
2022/07/27 03:41:35;;;;;;;6.15;2.98;;;;;;;18.97;82.00;100728.66;1874166;76;21148;-59
2022/07/27 03:44:03;;;;;;;7.67;2.72;;;;;;;19.03;82.08;100726.41;1874160;76;21059;-60
2022/07/27 03:46:32;;;;;;;9.90;3.58;;;;;;;19.10;81.93;100725.44;1874237;75;21032;-60
2022/07/27 03:49:01;;;;;;;13.53;3.37;;;;;;;19.13;81.09;100737.23;1874149;76;21040;-60
2022/07/27 03:51:30;;;;;;;5.92;2.65;;;;;;;19.09;80.21;100737.09;1874111;76;21467;-60
2022/07/27 03:53:59;;;;;;;5.45;2.67;;;;;;;19.05;79.49;100744.94;1874131;76;21483;-61
2022/07/27 03:56:28;;;;;;;9.20;2.65;;;;;;;19.11;79.49;100741.84;1874042;76;21012;-60
2022/07/27 03:58:56;;;;;;;9.68;3.08;;;;;;;19.23;79.51;100740.05;1874109;76;21002;-59
2022/07/27 04:01:25;;;;;;;6.53;2.55;;;;;;;19.31;78.76;100735.45;1874278;76;21101;-59
2022/07/27 04:03:53;;;;;;;8.33;2.72;;;;;;;19.41;78.13;100736.47;1874243;76;21098;-59
2022/07/27 04:06:22;;;;;;;3.37;1.80;;;;;;;19.56;77.88;100736.62;1874323;76;21597;-59
2022/07/27 04:08:51;;;;;;;8.73;2.80;;;;;;;19.77;77.61;100735.95;1882259;76;21064;-61
2022/07/27 04:11:20;;;;;;;8.23;2.70;;;;;;;20.00;77.18;100733.68;1886159;76;21577;-59
2022/07/27 04:13:52;;;;;;;4.50;2.45;;;;;;;20.24;76.53;100737.56;1886223;76;21039;-59
2022/07/27 04:16:20;;;;;;;5.03;2.05;;;;;;;20.49;76.21;100737.41;1886196;76;21540;-59
2022/07/27 04:18:49;;;;;;;8.85;2.15;;;;;;;20.77;75.89;100740.08;1886167;76;21089;-59
2022/07/27 04:21:17;;;;;;;8.28;2.90;;;;;;;21.10;75.54;100731.08;1886169;76;21035;-59
2022/07/27 04:23:46;;;;;;;4.33;2.05;;;;;;;21.37;74.61;100735.07;1886167;76;21093;-59
2022/07/27 04:26:14;;;;;;;5.67;2.17;;;;;;;21.64;73.70;100739.11;1886212;76;21588;-59
2022/07/27 04:28:43;;;;;;;7.72;2.42;;;;;;;21.87;72.78;100743.30;1886213;76;21087;-60
2022/07/27 04:31:12;;;;;;;6.85;2.40;;;;;;;22.12;71.92;100735.82;1886199;76;21035;-60
2022/07/27 04:33:40;;;;;;;15.68;2.85;;;;;;;22.41;71.58;100737.77;1886281;76;21027;-59
2022/07/27 04:36:09;;;;;;;4.28;2.00;;;;;;;22.73;71.14;100735.73;1886075;76;21060;-60
2022/07/27 04:38:38;;;;;;;4.33;2.15;;;;;;;23.03;70.66;100739.28;1886220;76;21435;-60
2022/07/27 04:41:07;;;;;;;6.05;1.90;;;;;;;23.30;69.80;100737.77;1886208;76;21000;-59
2022/07/27 04:43:35;;;;;;;4.00;2.17;;;;;;;23.57;69.26;100744.23;1886211;76;21454;-59
2022/07/27 04:46:04;;;;;;;12.47;2.62;;;;;;;23.82;68.47;100740.95;1886315;76;21162;-60
2022/07/27 04:48:34;;;;;;;4.40;2.08;;;;;;;24.01;68.12;100749.94;1886135;76;21031;-61
2022/07/27 04:51:03;;;;;;;6.62;2.00;;;;;;;24.23;67.21;100749.56;1886207;75;21106;-59
2022/07/27 04:53:32;;;;;;;4.78;1.52;;;;;;;24.38;66.41;100739.19;1886205;76;21134;-59
2022/07/27 04:56:00;;;;;;;6.90;2.20;;;;;;;24.45;65.20;100744.79;1886337;76;21093;-59
2022/07/27 04:58:29;;;;;;;6.97;2.15;;;;;;;24.58;64.54;100745.30;1886233;76;21530;-60
2022/07/27 05:00:57;;;;;;;3.75;1.62;;;;;;;24.76;64.04;100749.89;1886178;76;21102;-60
2022/07/27 05:03:26;;;;;;;3.02;1.60;;;;;;;25.07;63.91;100744.14;1886146;76;21100;-60
2022/07/27 05:05:55;;;;;;;4.17;1.22;;;;;;;25.36;63.81;100746.11;1886312;75;21097;-60
2022/07/27 05:08:23;;;;;;;4.83;1.42;;;;;;;25.72;63.63;100745.17;1882625;75;21109;-60
2022/07/27 05:10:52;;;;;;;3.00;1.57;;;;;;;26.06;62.83;100752.00;1859466;77;21531;-60
2022/07/27 05:13:20;;;;;;;2.62;1.72;;;;;;;26.36;61.30;100756.52;1859387;77;21103;-60
2022/07/27 05:15:49;;;;;;;6.25;1.67;;;;;;;26.59;60.77;100758.94;1859340;77;21126;-60
2022/07/27 05:18:17;;;;;;;4.67;1.60;;;;;;;26.87;59.96;100762.78;1859554;77;21041;-59
2022/07/27 05:20:46;;;;;;;3.12;1.37;;;;;;;27.09;59.00;100757.20;1859404;76;21033;-59
2022/07/27 05:23:15;;;;;;;1.80;1.22;;;;;;;27.03;57.65;100755.70;1859551;77;21534;-59
2022/07/27 05:25:43;;;;;;;3.72;1.40;;;;;;;27.20;57.68;100757.91;1859429;77;21114;-59
2022/07/27 05:28:12;;;;;;;3.62;1.35;;;;;;;27.32;56.59;100761.48;1859349;77;21051;-61
2022/07/27 05:30:41;;;;;;;1.92;1.30;;;;;;;27.52;56.22;100755.75;1859447;77;21076;-59
2022/07/27 05:33:10;;;;;;;2.85;1.30;;;;;;;27.83;56.47;100752.30;1859516;77;21106;-60
2022/07/27 05:35:39;;;;;;;1.80;1.27;;;;;;;28.27;56.13;100759.98;1859435;77;21048;-59
2022/07/27 05:38:07;;;;;;;3.90;1.37;;;;;;;28.67;56.07;100754.06;1859476;77;21036;-59
2022/07/27 05:40:36;;;;;;;3.35;1.40;;;;;;;29.00;55.22;100749.80;1859403;77;21028;-60
2022/07/27 05:43:04;;;;;;;4.30;1.40;;;;;;;29.15;53.17;100753.43;1859353;77;21605;-60
2022/07/27 05:45:33;;;;;;;4.42;1.35;;;;;;;29.23;52.69;100755.23;1859498;77;21037;-60
2022/07/27 05:48:01;;;;;;;4.42;1.57;;;;;;;29.36;52.76;100762.23;1859517;77;21033;-60
2022/07/27 05:50:30;;;;;;;2.00;1.62;;;;;;;29.53;51.66;100772.94;1859421;77;21041;-60
2022/07/27 05:52:59;;;;;;;2.77;1.40;;;;;;;29.54;50.24;100771.41;1859562;76;21045;-59
2022/07/27 05:55:28;;;;;;;3.65;1.70;;;;;;;29.40;49.02;100768.13;1859344;77;21425;-60
2022/07/27 05:57:57;;;;;;;2.95;1.20;;;;;;;29.55;50.06;100771.75;1859425;77;21052;-59
2022/07/27 06:00:25;;;;;;;3.08;1.30;;;;;;;29.73;50.20;100767.83;1859532;76;21084;-60
2022/07/27 06:02:54;;;;;;;2.37;1.35;;;;;;;29.99;50.07;100759.27;1859433;77;21535;-60
2022/07/27 06:05:23;;;;;;;4.08;1.50;;;;;;;30.22;49.70;100764.61;1859503;76;21102;-59
2022/07/27 06:08:02;;;;;;;2.95;1.32;;;;;;;30.55;49.33;100759.63;1859296;77;21037;-60
2022/07/27 06:10:32;;;;;;;1.90;1.20;;;;;;;30.96;48.67;100760.95;1869551;75;21624;-60
2022/07/27 06:13:03;;;;;;;2.83;1.60;;;;;;;31.16;48.28;100764.70;1874191;76;21826;-60
2022/07/27 06:15:32;;;;;;;5.50;1.65;;;;;;;31.46;48.19;100763.70;1874218;76;21536;-59
2022/07/27 06:18:02;;;;;;;3.70;1.50;;;;;;;31.74;47.80;100762.37;1874252;76;20996;-59
2022/07/27 06:20:31;;;;;;;4.92;1.60;;;;;;;31.64;45.15;100763.25;1874110;76;21466;-59
2022/07/27 06:23:07;;;;;;;2.33;1.70;;;;;;;31.47;45.83;100764.91;1874390;76;21095;-60
2022/07/27 06:25:33;;;;;;;2.25;1.40;;;;;;;31.72;46.02;100758.51;1874749;74;21040;-59
2022/07/27 06:28:02;;;;;;;2.42;1.30;;;;;;;31.92;45.00;100764.06;1874108;76;21036;-59
2022/07/27 06:30:31;;;;;;;3.52;1.30;;;;;;;31.88;44.05;100763.31;1874223;76;21545;-60
2022/07/27 06:32:59;;;;;;;3.33;1.40;;;;;;;32.02;43.54;100769.16;1874199;76;21028;-59
2022/07/27 06:35:28;;;;;;;2.08;1.37;;;;;;;32.13;43.81;100769.16;1874234;76;21067;-59
2022/07/27 06:37:57;;;;;;;3.30;1.30;;;;;;;31.78;41.78;100762.31;1874213;76;21583;-59
2022/07/27 06:40:25;;;;;;;4.40;1.30;;;;;;;31.54;42.64;100765.80;1874206;76;21071;-59
2022/07/27 06:42:54;;;;;;;3.65;1.20;;;;;;;31.68;42.40;100760.45;1874205;76;21113;-60
2022/07/27 06:45:23;;;;;;;2.15;1.40;;;;;;;31.80;42.52;100764.81;1874223;76;21036;-60
2022/07/27 06:47:51;;;;;;;2.62;1.22;;;;;;;32.00;41.80;100763.58;1874209;76;21031;-59
2022/07/27 06:50:21;;;;;;;1.98;1.17;;;;;;;32.25;41.83;100762.08;1874330;76;21020;-59
2022/07/27 06:52:50;;;;;;;2.62;0.90;;;;;;;32.57;41.35;100765.13;1874159;76;21040;-59
2022/07/27 06:55:18;;;;;;;1.52;1.20;;;;;;;33.14;41.27;100762.19;1874297;76;21029;-59
2022/07/27 06:57:47;;;;;;;2.85;1.20;;;;;;;33.14;41.27;100762.19;1874248;76;21154;-61
2022/07/27 07:00:16;;;;;;;1.90;1.32;;;;;;;33.42;41.11;100766.94;1874430;76;21448;-60
2022/07/27 07:02:57;;;;;;;3.00;1.50;;;;;;;33.63;40.26;100769.13;1874367;76;21036;-59
2022/07/27 07:05:26;;;;;;;3.10;1.37;;;;;;;33.39;38.30;100767.34;1874416;76;21040;-59
2022/07/27 07:07:55;;;;;;;2.60;1.42;;;;;;;33.23;39.19;100769.13;1874315;76;21511;-60
2022/07/27 07:10:24;;;;;;;3.92;1.10;;;;;;;33.33;39.07;100773.66;1874182;75;21060;-60
2022/07/27 07:12:57;;;;;;;2.55;1.30;;;;;;;33.46;38.58;100779.64;1874369;76;21523;-59
2022/07/27 07:15:26;;;;;;;3.90;1.50;;;;;;;33.54;38.63;100780.78;1874441;76;21129;-60
2022/07/27 07:17:56;;;;;;;2.83;1.72;;;;;;;33.69;38.46;100777.03;1874230;76;21020;-59
2022/07/27 07:20:26;;;;;;;5.15;1.35;;;;;;;33.78;38.24;100782.05;1874211;76;21024;-59
2022/07/27 07:22:54;;;;;;;3.17;1.00;;;;;;;33.95;38.46;100778.87;1874084;76;21032;-60
2022/07/27 07:25:23;;;;;;;2.65;1.40;;;;;;;33.60;38.38;100775.83;1874309;76;21176;-59
2022/07/27 07:27:52;;;;;;;6.65;1.60;;;;;;;34.10;38.26;100775.34;1874185;76;21016;-59
2022/07/27 07:30:21;;;;;;;1.77;1.17;;;;;;;34.10;38.26;100775.34;1874333;76;21024;-60
2022/07/27 07:32:50;;;;;;;2.27;1.05;;;;;;;34.38;37.97;100781.06;1874154;76;21032;-59
2022/07/27 07:35:19;;;;;;;2.37;1.30;;;;;;;34.38;37.56;100776.97;1874134;76;21174;-60
2022/07/27 07:37:48;;;;;;;2.80;1.25;;;;;;;34.51;37.45;100776.94;1874152;76;21172;-60
2022/07/27 07:40:16;;;;;;;1.60;1.30;;;;;;;34.79;36.77;100779.87;1874170;76;21577;-59
2022/07/27 07:42:51;;;;;;;3.27;1.42;;;;;;;34.52;36.83;100774.50;1874285;76;21027;-59
2022/07/27 07:45:21;;;;;;;2.67;1.30;;;;;;;32.70;38.05;100785.67;1874295;76;21094;-59
2022/07/27 07:47:51;;;;;;;3.90;1.47;;;;;;;32.70;38.05;100785.67;1874194;76;21565;-60
2022/07/27 07:50:21;;;;;;;4.50;1.22;;;;;;;31.98;38.53;100784.20;1874236;76;21083;-60
2022/07/27 07:52:54;;;;;;;3.70;1.47;;;;;;;31.11;39.50;100790.80;1874254;76;21482;-60
2022/07/27 07:55:29;;;;;;;6.03;1.60;;;;;;;30.29;40.09;100792.70;1874272;76;21098;-60
2022/07/27 07:58:00;;;;;;;2.92;1.20;;;;;;;29.54;40.94;100797.17;1874183;76;21474;-59
2022/07/27 08:00:29;;;;;;;1.98;1.32;;;;;;;29.90;41.14;100792.95;1874202;76;21451;-60
2022/07/27 08:02:58;;;;;;;4.40;1.60;;;;;;;30.46;40.82;100793.37;1874171;76;21423;-60
2022/07/27 08:05:27;;;;;;;5.20;1.47;;;;;;;31.20;40.51;100792.87;1874143;76;21055;-60
2022/07/27 08:07:56;;;;;;;1.72;1.20;;;;;;;31.98;39.83;100789.64;1874303;76;21024;-59
2022/07/27 08:10:26;;;;;;;2.65;1.20;;;;;;;32.65;39.16;100790.89;1874233;76;21020;-60
2022/07/27 08:12:57;;;;;;;3.02;1.50;;;;;;;33.46;38.53;100795.48;1886032;75;21067;-62
2022/07/27 08:15:26;;;;;;;1.80;1.10;;;;;;;33.96;38.05;100784.66;1886122;76;21012;-60
2022/07/27 08:17:54;;;;;;;1.95;1.27;;;;;;;34.48;36.92;100777.36;1886098;76;21105;-60
2022/07/27 08:20:25;;;;;;;3.35;1.10;;;;;;;34.39;36.02;100778.66;1886113;76;21027;-60
2022/07/27 08:22:53;;;;;;;2.90;1.42;;;;;;;34.66;35.68;100783.99;1886232;76;21105;-60
2022/07/27 08:25:22;;;;;;;2.52;1.32;;;;;;;34.98;35.75;100785.73;1886162;76;21003;-60
2022/07/27 08:27:51;;;;;;;4.08;1.67;;;;;;;35.44;35.96;100788.39;1886070;76;20976;-60
2022/07/27 08:30:20;;;;;;;3.72;1.57;;;;;;;34.96;36.37;100785.12;1886107;76;21031;-60
2022/07/27 08:32:57;;;;;;;2.35;1.62;;;;;;;33.95;37.75;100795.26;1886204;76;21019;-60
2022/07/27 08:35:30;;;;;;;4.28;1.60;;;;;;;33.63;38.21;100789.60;1886096;76;21545;-60
2022/07/27 08:37:59;;;;;;;2.72;1.80;;;;;;;33.37;38.16;100796.73;1886078;76;21109;-62
2022/07/27 08:40:28;;;;;;;3.10;1.90;;;;;;;33.52;38.01;100787.51;1886083;76;21415;-60
2022/07/27 08:42:57;;;;;;;2.08;1.70;;;;;;;34.08;38.15;100778.83;1886100;76;21540;-59
2022/07/27 08:45:26;;;;;;;3.72;1.77;;;;;;;34.35;37.55;100786.98;1886066;75;21459;-60
2022/07/27 08:47:55;;;;;;;4.55;1.67;;;;;;;34.30;37.40;100786.25;1886089;76;21008;-60
2022/07/27 08:50:24;;;;;;;3.25;1.55;;;;;;;34.23;37.03;100775.36;1886128;76;21431;-60
2022/07/27 08:53:08;;;;;;;4.08;1.82;;;;;;;34.39;36.74;100790.42;1886191;76;21082;-60
2022/07/27 08:55:39;;;;;;;4.17;1.80;;;;;;;33.59;37.62;100793.81;1819294;79;21559;-60
2022/07/27 08:58:09;;;;;;;4.37;1.50;;;;;;;32.48;38.99;100792.25;1886182;76;21564;-60
2022/07/27 09:00:41;;;;;;;6.03;1.45;;;;;;;32.37;39.74;100788.74;1886276;75;21102;-60
2022/07/27 09:03:14;;;;;;;8.53;2.02;;;;;;;33.14;39.36;100788.11;1886253;76;21012;-60
2022/07/27 09:05:44;;;;;;;2.90;1.45;;;;;;;34.02;38.33;100792.81;1886204;76;21474;-60
2022/07/27 09:08:23;;;;;;;1.72;1.30;;;;;;;34.30;37.42;100778.59;1886287;76;21003;-59
2022/07/27 09:10:56;;;;;;;3.55;1.42;;;;;;;34.54;36.47;100787.41;1886489;76;21030;-59
2022/07/27 09:13:30;;;;;;;2.80;1.40;;;;;;;34.83;35.43;100786.58;1861151;75;21538;-60
2022/07/27 09:16:02;;;;;;;3.42;1.30;;;;;;;33.91;35.77;100781.72;1859380;77;21057;-59
2022/07/27 09:18:36;;;;;;;5.75;1.70;;;;;;;33.91;35.77;100781.72;1859698;77;21052;-59
2022/07/27 09:21:13;;;;;;;3.77;1.80;;;;;;;34.06;35.73;100783.67;1859440;77;21029;-60
2022/07/27 09:23:44;;;;;;;3.42;1.82;;;;;;;34.45;35.59;100788.72;1859463;77;21475;-61
2022/07/27 09:26:25;;;;;;;2.77;1.47;;;;;;;33.91;36.02;100789.91;1859415;76;21198;-59
2022/07/27 09:28:56;;;;;;;5.83;1.75;;;;;;;33.02;36.76;100787.86;1859329;76;21549;-59
2022/07/27 09:31:25;;;;;;;7.40;3.75;;;;;;;32.05;37.91;100787.84;1859430;77;21569;-59
2022/07/27 09:34:00;;;;;;;1.98;1.70;;;;;;;31.20;39.05;100790.16;1859481;77;21033;-59
2022/07/27 09:36:30;;;;;;;4.35;1.87;;;;;;;30.49;40.00;100798.93;1859321;76;21142;-60
2022/07/27 09:39:09;;;;;;;6.17;1.85;;;;;;;29.81;40.84;100796.30;1859415;77;21165;-59
2022/07/27 09:41:42;;;;;;;3.40;1.75;;;;;;;29.36;41.58;100802.08;1858940;75;21025;-60
2022/07/27 09:44:12;;;;;;;5.12;1.80;;;;;;;28.98;42.35;100818.25;1859413;77;21030;-59
2022/07/27 09:46:42;;;;;;;4.58;1.98;;;;;;;28.47;43.61;100826.75;1859561;77;21155;-61
2022/07/27 09:49:29;;;;;;;7.58;2.10;;;;;;;28.01;45.09;100838.20;1859439;77;21191;-60
2022/07/27 09:52:00;;;;;;;9.95;2.58;;;;;;;27.45;47.42;100843.97;1858965;76;21100;-59
2022/07/27 09:54:43;;;;;;;4.75;2.25;;;;;;;26.82;49.46;100850.22;1859257;75;21578;-59
2022/07/27 09:57:12;;;;;;;5.65;2.10;;;;;;;26.33;50.76;100845.91;1859479;77;21060;-60
2022/07/27 09:59:41;;;;;;;3.87;1.72;;;;;;;25.86;52.13;100854.31;1859389;77;21051;-60
2022/07/27 10:02:14;;;;;;;3.27;1.20;;;;;;;25.42;53.88;100846.55;1859410;76;21060;-59
2022/07/27 10:04:44;;;;;;;4.47;1.50;;;;;;;25.09;54.52;100853.42;1859402;77;21040;-59
2022/07/27 10:07:13;;;;;;;4.95;2.37;;;;;;;25.13;54.33;100856.16;1859539;77;21040;-60
2022/07/27 10:09:45;;;;;;;2.98;1.47;;;;;;;25.09;56.11;100856.63;1859358;76;21499;-60
2022/07/27 10:12:12;;;;;;;2.45;1.35;;;;;;;24.98;57.17;100870.64;1859538;75;21538;-59
2022/07/27 10:14:41;;;;;;;1.37;1.00;;;;;;;24.92;57.00;100871.25;1859416;77;21142;-60
2022/07/27 10:17:10;;;;;;;2.02;0.95;;;;;;;24.89;57.09;100877.44;1859431;77;21596;-60
2022/07/27 10:19:49;;;;;;;1.37;1.15;;;;;;;24.85;57.23;100875.54;1859447;77;21084;-59
2022/07/27 10:22:36;;;;;;;1.20;1.07;;;;;;;24.78;58.17;100874.44;1859342;77;21049;-59
2022/07/27 10:25:06;;;;;;;2.27;1.37;;;;;;;24.71;58.86;100868.80;1859368;77;21039;-59
2022/07/27 10:27:34;;;;;;;4.15;1.42;;;;;;;24.97;59.09;100867.62;1859534;77;21013;-60
2022/07/27 10:30:05;;;;;;;2.87;1.10;;;;;;;25.14;58.52;100865.08;1859422;77;21069;-60
2022/07/27 10:32:34;;;;;;;3.80;1.57;;;;;;;25.36;58.16;100865.17;1859426;77;21111;-62
2022/07/27 10:35:03;;;;;;;2.12;1.60;;;;;;;25.70;57.74;100862.63;1859379;77;21021;-59
2022/07/27 10:37:33;;;;;;;1.90;1.20;;;;;;;26.11;57.19;100859.42;1859530;77;21040;-60
2022/07/27 10:43:04;;;;;;;3.75;1.67;;;;;;;25.79;57.10;100863.55;1859407;76;21123;-59
2022/07/27 10:45:41;;;;;;;2.25;1.50;;;;;;;25.53;57.94;100867.55;1858981;75;21101;-59
2022/07/27 10:48:16;;;;;;;4.25;1.70;;;;;;;25.24;58.71;100869.95;1859728;75;21495;-60
2022/07/27 10:50:48;;;;;;;2.27;1.80;;;;;;;25.08;59.18;100876.47;1840892;76;21048;-60
2022/07/27 10:53:17;;;;;;;1.80;1.42;;;;;;;24.93;59.69;100871.59;1859801;77;21044;-59
2022/07/27 10:55:47;;;;;;;3.90;2.33;;;;;;;24.74;60.10;100875.23;1859306;77;21107;-60
2022/07/27 10:58:19;;;;;;;2.52;1.40;;;;;;;24.61;60.66;100864.80;1859367;77;21052;-60
2022/07/27 11:00:54;;;;;;;4.45;2.20;;;;;;;24.31;61.67;100857.81;1863532;75;21053;-59
2022/07/27 11:03:29;;;;;;;7.33;1.80;;;;;;;24.41;62.00;100861.30;1859394;77;21029;-59
2022/07/27 11:06:06;;;;;;;4.00;1.70;;;;;;;24.79;61.54;100865.38;1859386;77;21040;-60
2022/07/27 11:08:33;;;;;;;5.10;2.20;;;;;;;24.92;61.24;100861.83;1859147;76;21096;-59
2022/07/27 11:11:03;;;;;;;6.25;2.00;;;;;;;25.36;60.67;100862.00;1859360;77;21044;-59
2022/07/27 11:13:33;;;;;;;2.80;1.85;;;;;;;25.77;60.24;100866.41;1865491;75;21129;-59
2022/07/27 11:16:05;;;;;;;2.83;1.95;;;;;;;26.07;59.64;100862.94;1874259;76;21419;-59
2022/07/27 11:18:39;;;;;;;3.67;1.50;;;;;;;26.23;58.92;100868.96;1874228;76;21503;-59
2022/07/27 11:21:28;;;;;;;3.27;1.40;;;;;;;26.25;58.02;100866.11;1874206;76;21001;-59
2022/07/27 11:24:01;;;;;;;3.25;1.77;;;;;;;26.20;57.91;100864.71;1874256;76;21024;-59
2022/07/27 11:26:32;;;;;;;2.80;1.75;;;;;;;26.08;57.85;100859.25;1874342;76;21075;-59
2022/07/27 11:29:01;;;;;;;3.52;1.57;;;;;;;26.27;57.68;100863.58;1874779;74;21035;-59
2022/07/27 11:31:31;;;;;;;3.58;1.47;;;;;;;26.46;57.36;100862.50;1874206;76;21514;-59
2022/07/27 11:34:00;;;;;;;3.45;1.60;;;;;;;26.52;57.23;100860.53;1874230;76;21083;-59
2022/07/27 11:36:43;;;;;;;3.52;1.75;;;;;;;26.61;56.83;100856.53;1874154;76;21123;-59
2022/07/27 11:39:15;;;;;;;3.42;1.55;;;;;;;26.77;56.38;100859.30;1874262;76;21052;-60
2022/07/27 11:41:45;;;;;;;3.37;1.50;;;;;;;26.96;55.90;100850.95;1874306;76;21094;-59